Bandirma, Band?rma Airport (LTBG)

NameBand?rma Airport
CityBandirma
CountryTurkey
ICAOLTBG
IATABDM
Altitude52 m
CoordinatesGoogle Map
Live Air TrafficLiveATC.net
METARLTBG 141050Z 19005KT 9999 -SHRA SCT035 BKN100 19/12 Q1011 NOSIG RMK RWY18 20006KT
2019-11-14 10:50:00 Wind: South (190°) 2.57 m/s - Visibility: > 10000 m - Weather: Light Showers Rain - Temperature: 19 °C - Dew point: 12 °C - Humidity: 64% - Pressure: 1011 hPa

Sorry, no flights used the airport in this database.